Time;durP1;ratioP1;P1;durP2;ratioP2;P2;SDS_P1;SDS_P2;PMS_P1;PMS_P2;Temp;Humidity;BMP_temperature;BMP_pressure;BME280_temperature;BME280_humidity;BME280_pressure;Samples;Min_cycle;Max_cycle;Signal;HPM_P1;HPM_P2
2022/11/23 00:00:29;;;;;;;6.50;2.20;;;;;;;6.95;nan;99117.66;5041396;28;20410;-87
2022/11/23 00:02:59;;;;;;;5.38;1.88;;;;;;;6.96;nan;99120.13;5031514;28;20029;-86
2022/11/23 00:05:26;;;;;;;6.00;2.00;;;;;;;6.98;nan;99117.31;5051026;28;20039;-85
2022/11/23 00:07:51;;;;;;;7.97;1.85;;;;;;;6.98;nan;99118.16;5032452;28;20029;-86
2022/11/23 00:10:17;;;;;;;6.50;2.30;;;;;;;7.03;nan;99125.53;5030384;28;20120;-87
2022/11/23 00:12:42;;;;;;;4.97;2.05;;;;;;;7.03;nan;99115.00;5030913;28;20107;-88
2022/11/23 00:15:09;;;;;;;5.72;1.95;;;;;;;7.06;nan;99113.88;5017325;28;20053;-87
2022/11/23 00:17:34;;;;;;;6.40;2.00;;;;;;;7.06;nan;99121.78;5033032;28;20080;-86
2022/11/23 00:19:59;;;;;;;3.47;1.70;;;;;;;7.05;nan;99118.31;5024600;28;20076;-86
2022/11/23 00:22:25;;;;;;;8.90;1.92;;;;;;;6.88;nan;99119.28;5039562;28;20130;-86
2022/11/23 00:24:50;;;;;;;5.50;1.67;;;;;;;6.72;nan;99118.28;5033346;28;20025;-86
2022/11/23 00:27:16;;;;;;;8.63;2.00;;;;;;;6.66;nan;99124.16;5032317;28;20041;-86
2022/11/23 00:29:41;;;;;;;7.68;2.35;;;;;;;6.61;nan;99120.41;5045388;28;20397;-86
2022/11/23 00:32:06;;;;;;;5.63;1.90;;;;;;;6.56;nan;99128.75;5024103;28;20483;-86
2022/11/23 00:34:32;;;;;;;5.03;2.10;;;;;;;6.52;nan;99122.97;5025150;28;20038;-87
2022/11/23 00:36:57;;;;;;;5.57;2.22;;;;;;;6.50;nan;99122.31;5031737;28;20079;-86
2022/11/23 00:39:22;;;;;;;7.18;1.75;;;;;;;6.49;nan;99125.94;5025740;28;20034;-88
2022/11/23 00:41:48;;;;;;;5.97;1.98;;;;;;;6.49;nan;99128.56;5030414;28;20034;-85
2022/11/23 00:44:13;;;;;;;7.72;2.30;;;;;;;6.44;nan;99122.97;5037242;28;20040;-86
2022/11/23 00:46:38;;;;;;;9.15;2.20;;;;;;;6.47;nan;99129.72;5034560;28;20029;-85
2022/11/23 00:49:05;;;;;;;7.80;2.10;;;;;;;6.47;nan;99134.97;5051014;28;20033;-86
2022/11/23 00:51:33;;;;;;;3.50;1.60;;;;;;;6.47;nan;99138.41;5045259;28;20508;-86
2022/11/23 00:53:59;;;;;;;6.25;1.80;;;;;;;6.48;nan;99142.66;5033182;28;20417;-86
2022/11/23 00:56:26;;;;;;;4.10;1.50;;;;;;;6.51;nan;99144.19;5043188;28;20035;-86
2022/11/23 00:58:53;;;;;;;4.10;1.80;;;;;;;6.54;nan;99149.91;5036029;28;20032;-85
2022/11/23 01:01:22;;;;;;;6.32;1.95;;;;;;;6.54;nan;99149.91;5026038;28;20037;-87
2022/11/23 01:03:57;;;;;;;5.47;1.90;;;;;;;6.58;nan;99142.56;5036665;28;20078;-85
2022/11/23 01:06:25;;;;;;;5.32;1.70;;;;;;;6.59;nan;99147.63;5016034;28;20033;-86
2022/11/23 01:08:57;;;;;;;3.92;1.77;;;;;;;6.59;nan;99145.00;5034511;28;20026;-86
2022/11/23 01:11:24;;;;;;;5.25;1.88;;;;;;;6.59;nan;99145.00;5032491;28;20033;-86
2022/11/23 01:13:51;;;;;;;4.93;1.95;;;;;;;6.61;nan;99149.28;5028016;28;20036;-86
2022/11/23 01:16:22;;;;;;;5.75;1.85;;;;;;;6.62;nan;99149.09;5025887;28;20497;-87
2022/11/23 01:18:51;;;;;;;3.90;1.60;;;;;;;6.61;nan;99151.91;5026447;28;20044;-86
2022/11/23 01:21:16;;;;;;;4.07;1.77;;;;;;;6.64;nan;99148.97;5052409;28;20036;-86
2022/11/23 01:23:41;;;;;;;6.75;2.25;;;;;;;6.66;nan;99142.56;5033948;28;20108;-86
2022/11/23 01:26:09;;;;;;;6.13;1.60;;;;;;;6.69;nan;99151.91;5041233;28;20037;-87
2022/11/23 01:28:36;;;;;;;5.25;1.70;;;;;;;6.71;nan;99148.16;5032849;28;20033;-86
2022/11/23 01:31:07;;;;;;;6.90;2.13;;;;;;;6.74;nan;99153.06;5039072;28;20041;-86
2022/11/23 01:33:33;;;;;;;;;;;;;;;6.74;nan;99145.19;5039461;28;20033;-86
2022/11/23 01:35:58;;;;;;;6.78;1.60;;;;;;;6.76;nan;99156.38;5034054;28;19927;-87
2022/11/23 01:38:23;;;;;;;4.00;1.40;;;;;;;6.76;nan;99152.91;5037781;28;20392;-86
2022/11/23 01:40:48;;;;;;;3.95;1.52;;;;;;;6.76;nan;99151.13;5028608;28;20167;-86
2022/11/23 01:43:16;;;;;;;6.20;2.10;;;;;;;6.78;nan;99143.09;5031578;28;20401;-86
2022/11/23 01:45:56;;;;;;;3.45;1.30;;;;;;;6.81;nan;99148.00;5039529;28;20025;-87
2022/11/23 01:48:41;;;;;;;6.00;1.80;;;;;;;6.85;nan;99153.78;5043257;28;20059;-87
2022/11/23 01:51:14;;;;;;;4.63;1.70;;;;;;;6.85;nan;99146.72;5044499;28;20655;-87
2022/11/23 01:53:40;;;;;;;5.47;1.63;;;;;;;6.87;nan;99151.81;5031648;28;20029;-87
2022/11/23 01:56:09;;;;;;;6.43;1.58;;;;;;;6.87;nan;99152.63;5028016;28;20670;-87
2022/11/23 01:58:39;;;;;;;5.18;1.75;;;;;;;6.88;nan;99153.44;5026016;28;20033;-86
2022/11/23 02:01:06;;;;;;;4.03;1.50;;;;;;;6.90;nan;99147.03;5029899;28;20041;-87
2022/11/23 02:03:33;;;;;;;4.60;1.52;;;;;;;6.90;nan;99148.84;5028407;28;20109;-87
2022/11/23 02:06:04;;;;;;;2.80;1.40;;;;;;;6.92;nan;99147.69;5024418;28;20060;-87
2022/11/23 02:08:30;;;;;;;5.55;1.55;;;;;;;6.91;nan;99143.44;5039040;28;20022;-88
2022/11/23 02:10:57;;;;;;;6.15;1.58;;;;;;;6.92;nan;99142.44;5039611;28;20084;-85
2022/11/23 02:13:23;;;;;;;4.50;1.50;;;;;;;6.91;nan;99143.44;5032407;28;20083;-87
2022/11/23 02:15:49;;;;;;;6.10;1.50;;;;;;;6.93;nan;99149.34;5031557;28;20029;-86
2022/11/23 02:18:20;;;;;;;4.45;1.40;;;;;;;6.95;nan;99151.81;5030781;28;20045;-86
2022/11/23 02:20:45;;;;;;;3.97;1.65;;;;;;;6.96;nan;99151.66;5047451;28;20393;-87
2022/11/23 02:23:38;;;;;;;6.32;1.90;;;;;;;6.97;nan;99155.09;5031177;28;20119;-86
2022/11/23 02:26:18;;;;;;;5.38;1.55;;;;;;;6.96;nan;99149.03;5032191;28;20029;-86
2022/11/23 02:28:49;;;;;;;5.10;1.60;;;;;;;6.98;nan;99152.31;5030257;28;20635;-86
2022/11/23 02:31:14;;;;;;;5.90;1.90;;;;;;;7.00;nan;99152.97;5049552;28;20033;-86
2022/11/23 02:33:40;;;;;;;6.07;1.90;;;;;;;7.02;nan;99155.44;5029856;28;20128;-86
2022/11/23 02:36:33;;;;;;;6.15;1.70;;;;;;;6.99;nan;99156.56;5023640;28;20029;-86
2022/11/23 02:39:03;;;;;;;4.93;1.60;;;;;;;7.00;nan;99146.88;5047718;28;20033;-86
2022/11/23 02:41:38;;;;;;;5.35;1.65;;;;;;;7.00;nan;99150.31;5044038;28;20055;-86
2022/11/23 02:44:09;;;;;;;8.05;1.70;;;;;;;7.01;nan;99140.66;5025317;28;20633;-87
2022/11/23 02:46:34;;;;;;;6.00;1.65;;;;;;;7.02;nan;99139.66;5035794;28;20036;-88
2022/11/23 02:48:59;;;;;;;3.50;1.48;;;;;;;6.99;nan;99138.19;5041415;28;20591;-86
2022/11/23 02:51:25;;;;;;;7.60;1.60;;;;;;;6.96;nan;99143.78;5014150;28;20051;-86
2022/11/23 02:53:50;;;;;;;5.47;1.60;;;;;;;7.00;nan;99146.88;5039638;28;20036;-86
2022/11/23 02:56:15;;;;;;;5.25;1.52;;;;;;;6.99;nan;99146.06;5022833;28;20049;-86
2022/11/23 02:58:40;;;;;;;3.33;1.55;;;;;;;6.98;nan;99140.97;5042095;28;20060;-86
2022/11/23 03:01:06;;;;;;;4.45;1.45;;;;;;;7.00;nan;99134.56;5027754;28;20038;-86
2022/11/23 03:03:31;;;;;;;5.85;1.60;;;;;;;7.00;nan;99134.56;5046492;28;20055;-86
2022/11/23 03:05:56;;;;;;;5.10;1.63;;;;;;;6.97;nan;99141.97;5026128;28;20030;-86
2022/11/23 03:08:22;;;;;;;4.95;1.50;;;;;;;7.00;nan;99131.13;5031789;28;20037;-86
2022/11/23 03:10:47;;;;;;;5.07;2.00;;;;;;;6.98;nan;99131.28;5028405;28;20037;-84
2022/11/23 03:13:12;;;;;;;5.10;1.60;;;;;;;7.02;nan;99137.03;5027760;28;20028;-84
2022/11/23 03:15:37;;;;;;;8.25;1.83;;;;;;;7.00;nan;99137.19;5024739;28;20760;-84
2022/11/23 03:18:03;;;;;;;5.53;1.65;;;;;;;7.01;nan;99130.97;5030750;28;20137;-83
2022/11/23 03:20:28;;;;;;;8.02;1.80;;;;;;;7.02;nan;99134.41;5033160;28;20075;-84
2022/11/23 03:22:53;;;;;;;4.60;1.60;;;;;;;7.02;nan;99132.59;5028662;28;20035;-86
2022/11/23 03:25:19;;;;;;;6.05;1.52;;;;;;;7.01;nan;99132.78;5023576;28;20041;-85
2022/11/23 03:27:44;;;;;;;6.53;2.03;;;;;;;6.98;nan;99140.97;5048041;28;20021;-84
2022/11/23 03:30:09;;;;;;;7.30;1.88;;;;;;;7.03;nan;99138.66;5032525;28;20029;-84
2022/11/23 03:32:35;;;;;;;5.20;1.52;;;;;;;7.02;nan;99147.53;5029110;28;20490;-85
2022/11/23 03:35:02;;;;;;;4.13;1.55;;;;;;;7.05;nan;99138.50;5033872;28;20060;-83
2022/11/23 03:37:27;;;;;;;5.13;1.60;;;;;;;7.03;nan;99138.66;5033249;28;20498;-84
2022/11/23 03:39:52;;;;;;;3.42;1.50;;;;;;;7.06;nan;99138.34;5044069;28;20048;-84
2022/11/23 03:42:17;;;;;;;7.75;1.95;;;;;;;7.06;nan;99142.81;5032571;28;20087;-83
2022/11/23 03:44:43;;;;;;;4.32;1.42;;;;;;;7.08;nan;99141.66;5026766;28;20138;-83
2022/11/23 03:47:08;;;;;;;4.18;1.65;;;;;;;7.08;nan;99144.28;5044885;28;20063;-87
2022/11/23 03:49:34;;;;;;;5.30;1.77;;;;;;;7.07;nan;99140.00;5025567;28;20364;-87
2022/11/23 03:51:59;;;;;;;3.30;1.40;;;;;;;7.10;nan;99142.28;5027446;28;20029;-87
2022/11/23 03:54:24;;;;;;;5.80;1.90;;;;;;;7.12;nan;99139.50;5029918;28;20037;-87
2022/11/23 03:56:50;;;;;;;4.25;1.52;;;;;;;7.09;nan;99134.59;5023239;28;20079;-87
2022/11/23 03:59:15;;;;;;;6.57;1.60;;;;;;;7.13;nan;99143.78;5026572;28;20037;-87
2022/11/23 04:01:40;;;;;;;4.10;1.40;;;;;;;7.11;nan;99135.25;5026036;28;20046;-87
2022/11/23 04:04:05;;;;;;;4.95;1.60;;;;;;;7.15;nan;99145.28;5025968;28;20026;-88
2022/11/23 04:06:31;;;;;;;4.05;1.80;;;;;;;7.15;nan;99139.16;5036079;28;20040;-87
2022/11/23 04:08:56;;;;;;;5.88;1.88;;;;;;;7.13;nan;99144.59;5027922;28;20021;-87
2022/11/23 04:11:21;;;;;;;5.20;1.60;;;;;;;7.14;nan;99138.34;5029636;28;20116;-86
2022/11/23 04:13:47;;;;;;;3.90;1.55;;;;;;;7.14;nan;99140.16;5023723;28;20022;-86
2022/11/23 04:16:12;;;;;;;5.10;1.50;;;;;;;7.14;nan;99138.34;5019876;28;20072;-86
2022/11/23 04:18:37;;;;;;;6.65;1.67;;;;;;;7.12;nan;99142.13;5020867;28;20038;-87
2022/11/23 04:21:03;;;;;;;7.68;1.92;;;;;;;7.13;nan;99134.09;5027982;28;20045;-87
2022/11/23 04:23:28;;;;;;;3.78;1.38;;;;;;;7.13;nan;99139.34;5023483;28;20041;-86
2022/11/23 04:25:53;;;;;;;4.20;1.40;;;;;;;7.16;nan;99143.47;5027731;28;20663;-86
2022/11/23 04:28:19;;;;;;;4.32;1.40;;;;;;;7.14;nan;99138.34;5041235;28;20059;-85
2022/11/23 04:30:44;;;;;;;6.82;1.80;;;;;;;7.14;nan;99137.53;5041503;28;20057;-86
2022/11/23 04:33:10;;;;;;;5.47;1.35;;;;;;;7.13;nan;99136.72;5044125;28;20029;-85
2022/11/23 04:35:35;;;;;;;5.20;1.55;;;;;;;7.09;nan;99140.66;5040650;28;20021;-86
2022/11/23 04:38:01;;;;;;;5.00;1.70;;;;;;;7.10;nan;99131.78;5031470;28;20437;-86
2022/11/23 04:40:26;;;;;;;5.28;1.90;;;;;;;7.09;nan;99138.03;5033637;28;20603;-86
2022/11/23 04:42:52;;;;;;;5.35;1.48;;;;;;;7.11;nan;99130.00;5037906;28;20634;-86
2022/11/23 04:45:17;;;;;;;6.15;1.45;;;;;;;7.13;nan;99133.28;5049711;28;20060;-86
2022/11/23 04:47:42;;;;;;;3.80;1.40;;;;;;;7.14;nan;99134.91;5039906;28;20514;-86
2022/11/23 04:50:08;;;;;;;4.30;1.40;;;;;;;7.12;nan;99129.81;5026167;28;20067;-86
2022/11/23 04:52:33;;;;;;;3.90;1.38;;;;;;;7.13;nan;99130.66;5052242;28;20033;-87
2022/11/23 04:54:58;;;;;;;5.18;1.23;;;;;;;7.16;nan;99125.06;5034753;28;20116;-85
2022/11/23 04:57:23;;;;;;;6.20;1.60;;;;;;;7.12;nan;99129.00;5052296;28;20481;-86
2022/11/23 04:59:49;;;;;;;2.90;1.23;;;;;;;7.15;nan;99126.03;5030702;28;20033;-86
2022/11/23 05:02:14;;;;;;;4.30;1.30;;;;;;;7.16;nan;99127.69;5029560;28;20029;-86
2022/11/23 05:04:40;;;;;;;4.18;1.40;;;;;;;7.12;nan;99124.53;5035723;28;20032;-86
2022/11/23 05:07:05;;;;;;;6.70;1.98;;;;;;;7.12;nan;99121.09;5027763;28;20163;-86
2022/11/23 05:09:31;;;;;;;5.05;1.75;;;;;;;7.13;nan;99125.38;5026755;28;20536;-86
2022/11/23 05:11:56;;;;;;;4.18;1.27;;;;;;;7.15;nan;99131.28;5032810;28;20033;-86
2022/11/23 05:14:21;;;;;;;4.25;1.35;;;;;;;7.17;nan;99127.50;5034471;28;20033;-86
2022/11/23 05:16:47;;;;;;;6.00;1.60;;;;;;;7.17;nan;99137.19;5030346;28;20037;-86
2022/11/23 05:19:12;;;;;;;5.20;1.38;;;;;;;7.13;nan;99135.91;5032889;28;20566;-86
2022/11/23 05:21:37;;;;;;;6.63;1.38;;;;;;;7.15;nan;99139.16;5035742;28;20044;-84
2022/11/23 05:24:03;;;;;;;4.68;1.30;;;;;;;7.15;nan;99145.28;5024465;28;20033;-85
2022/11/23 05:26:28;;;;;;;5.43;1.42;;;;;;;7.16;nan;99136.38;5051978;28;20053;-84
2022/11/23 05:28:53;;;;;;;5.00;1.60;;;;;;;7.13;nan;99134.09;5051112;28;20037;-84
2022/11/23 05:31:19;;;;;;;4.63;1.60;;;;;;;7.11;nan;99136.06;5026909;28;20048;-85
2022/11/23 05:33:44;;;;;;;3.72;1.20;;;;;;;7.12;nan;99134.25;5030781;28;20029;-85
2022/11/23 05:36:12;;;;;;;3.42;1.30;;;;;;;7.14;nan;99137.53;5033302;28;20040;-84
2022/11/23 05:38:38;;;;;;;5.15;1.38;;;;;;;7.12;nan;99131.63;5030236;28;20025;-84
2022/11/23 05:41:05;;;;;;;4.13;1.70;;;;;;;7.11;nan;99133.44;5023713;28;20068;-85
2022/11/23 05:43:30;;;;;;;6.18;1.80;;;;;;;7.12;nan;99131.63;5042007;28;20121;-85
2022/11/23 05:45:58;;;;;;;3.38;1.50;;;;;;;7.11;nan;99127.34;5032164;28;20679;-85
2022/11/23 05:48:23;;;;;;;4.68;1.30;;;;;;;7.08;nan;99130.28;5049690;28;20069;-85
2022/11/23 05:50:49;;;;;;;6.22;1.80;;;;;;;7.08;nan;99123.25;5036477;28;20402;-84
2022/11/23 05:53:14;;;;;;;4.72;1.73;;;;;;;7.09;nan;99129.31;5051691;28;20296;-85
2022/11/23 05:55:40;;;;;;;5.05;1.88;;;;;;;7.08;nan;99138.19;5032525;28;20040;-84
2022/11/23 05:58:05;;;;;;;4.43;1.20;;;;;;;7.09;nan;99132.78;5035239;28;20118;-84
2022/11/23 06:00:30;;;;;;;5.80;1.40;;;;;;;7.06;nan;99134.91;5031616;28;20559;-85
2022/11/23 06:03:00;;;;;;;3.95;1.23;;;;;;;7.09;nan;99132.78;5046645;28;20041;-85
2022/11/23 06:05:26;;;;;;;4.22;1.45;;;;;;;7.10;nan;99130.94;5043703;28;20478;-84
2022/11/23 06:07:52;;;;;;;4.75;1.20;;;;;;;7.10;nan;99134.41;5035278;28;20044;-85
2022/11/23 06:10:18;;;;;;;3.53;1.20;;;;;;;7.10;nan;99133.59;5034411;28;20036;-84
2022/11/23 06:12:44;;;;;;;3.88;1.25;;;;;;;7.11;nan;99138.69;5044245;28;20049;-85
2022/11/23 06:15:10;;;;;;;4.72;1.33;;;;;;;7.12;nan;99137.69;5033262;28;20498;-84
2022/11/23 06:17:35;;;;;;;4.38;1.30;;;;;;;7.13;nan;99130.66;5029865;28;20033;-85
2022/11/23 06:20:00;;;;;;;5.55;1.73;;;;;;;7.17;nan;99139.81;5029984;28;20051;-86
2022/11/23 06:22:26;;;;;;;5.35;1.92;;;;;;;7.16;nan;99141.66;5040931;28;20045;-85
2022/11/23 06:24:51;;;;;;;4.72;1.63;;;;;;;7.15;nan;99140.00;5050985;28;20053;-86
2022/11/23 06:27:16;;;;;;;6.40;1.70;;;;;;;7.18;nan;99136.22;5043318;28;20061;-87
2022/11/23 06:29:42;;;;;;;5.60;1.50;;;;;;;7.19;nan;99143.94;5063031;28;20033;-86
2022/11/23 06:32:08;;;;;;;7.63;1.67;;;;;;;7.21;nan;99143.78;5043002;28;20056;-85
2022/11/23 06:34:33;;;;;;;3.88;1.30;;;;;;;7.18;nan;99144.94;5059106;28;20029;-85
2022/11/23 06:36:58;;;;;;;5.45;1.77;;;;;;;7.16;nan;99141.66;5038810;28;20040;-86
2022/11/23 06:39:24;;;;;;;5.40;1.50;;;;;;;7.19;nan;99140.50;5033089;28;20079;-86
2022/11/23 06:41:49;;;;;;;5.45;1.50;;;;;;;7.22;nan;99140.16;5043518;28;20029;-86
2022/11/23 06:44:14;;;;;;;6.47;1.70;;;;;;;7.21;nan;99138.53;5037598;28;20037;-86
2022/11/23 06:46:45;;;;;;;6.47;1.80;;;;;;;7.20;nan;99142.16;5030149;28;20033;-86
2022/11/23 06:49:10;;;;;;;5.07;1.50;;;;;;;7.19;nan;99143.13;5030002;28;20036;-85
2022/11/23 06:51:36;;;;;;;6.60;1.90;;;;;;;7.22;nan;99142.78;5034079;28;20025;-85
2022/11/23 06:54:01;;;;;;;4.82;1.50;;;;;;;7.20;nan;99144.78;5032659;28;20033;-86
2022/11/23 06:56:26;;;;;;;5.22;1.60;;;;;;;7.20;nan;99157.94;5037650;28;20128;-87
2022/11/23 06:58:52;;;;;;;5.38;1.30;;;;;;;7.15;nan;99149.69;5030770;28;20033;-86
2022/11/23 07:01:17;;;;;;;6.05;1.88;;;;;;;7.09;nan;99153.78;5038681;28;20041;-88
2022/11/23 07:03:42;;;;;;;5.80;1.73;;;;;;;7.04;nan;99163.97;5030137;28;20116;-86
2022/11/23 07:06:09;;;;;;;7.93;1.70;;;;;;;6.99;nan;99159.22;5029267;28;20087;-86
2022/11/23 07:08:38;;;;;;;5.25;1.40;;;;;;;6.99;nan;99159.22;5030789;28;20039;-86
2022/11/23 07:11:05;;;;;;;5.82;1.55;;;;;;;7.00;nan;99166.09;5041583;28;20044;-86
2022/11/23 07:13:31;;;;;;;5.32;1.60;;;;;;;7.01;nan;99164.31;5035118;28;20390;-87
2022/11/23 07:15:58;;;;;;;5.40;1.98;;;;;;;6.99;nan;99167.09;5029979;28;20021;-86
2022/11/23 07:18:23;;;;;;;5.05;1.83;;;;;;;7.02;nan;99163.31;5030488;28;20063;-85
2022/11/23 07:20:49;;;;;;;6.55;2.13;;;;;;;7.02;nan;99163.31;5023974;28;20037;-85
2022/11/23 07:23:14;;;;;;;7.75;1.90;;;;;;;7.03;nan;99162.31;5028640;28;20037;-85
2022/11/23 07:25:39;;;;;;;7.80;1.90;;;;;;;7.07;nan;99168.09;5019171;28;20033;-85
2022/11/23 07:28:06;;;;;;;4.47;1.75;;;;;;;7.07;nan;99173.34;5050776;28;20552;-86
2022/11/23 07:30:34;;;;;;;4.53;1.60;;;;;;;7.09;nan;99176.63;5043775;28;20029;-85
2022/11/23 07:33:01;;;;;;;7.78;1.55;;;;;;;7.10;nan;99184.34;5054480;28;20040;-86
2022/11/23 07:35:26;;;;;;;6.85;1.60;;;;;;;7.08;nan;99186.34;5031989;28;20102;-87
2022/11/23 07:37:52;;;;;;;4.65;1.60;;;;;;;7.05;nan;99180.56;5049284;28;20087;-87
2022/11/23 07:40:17;;;;;;;2.97;1.20;;;;;;;7.00;nan;99183.69;5027225;28;20600;-87
2022/11/23 07:42:43;;;;;;;4.03;1.42;;;;;;;6.97;nan;99189.25;5030459;28;20441;-87
2022/11/23 07:45:09;;;;;;;5.88;1.65;;;;;;;6.95;nan;99186.78;5031011;28;20106;-86
2022/11/23 07:47:34;;;;;;;4.90;1.70;;;;;;;6.93;nan;99187.94;5027768;28;20029;-85
2022/11/23 07:49:59;;;;;;;4.60;1.50;;;;;;;6.91;nan;99188.13;5033099;28;20494;-85
2022/11/23 07:52:25;;;;;;;4.60;1.40;;;;;;;6.92;nan;99188.94;5024551;28;20037;-86
2022/11/23 07:54:50;;;;;;;6.20;1.48;;;;;;;6.94;nan;99195.66;5051670;28;20052;-85
2022/11/23 07:57:15;;;;;;;4.72;1.48;;;;;;;6.96;nan;99187.59;5051658;28;20064;-85
2022/11/23 07:59:41;;;;;;;3.75;1.20;;;;;;;6.99;nan;99198.63;5034941;28;20063;-87
2022/11/23 08:02:10;;;;;;;5.68;1.65;;;;;;;6.96;nan;99198.97;5029287;28;20520;-87
2022/11/23 08:04:36;;;;;;;5.40;1.65;;;;;;;7.01;nan;99193.22;5033722;28;20040;-85
2022/11/23 08:07:02;;;;;;;7.68;1.60;;;;;;;7.06;nan;99195.38;5030576;28;20029;-86
2022/11/23 08:09:28;;;;;;;4.18;1.48;;;;;;;7.06;nan;99190.94;5030583;28;20039;-86
2022/11/23 08:11:53;;;;;;;4.93;1.60;;;;;;;7.11;nan;99193.06;5034610;28;20100;-85
2022/11/23 08:14:33;;;;;;;5.43;1.63;;;;;;;7.14;nan;99198.00;5032798;28;20041;-86
2022/11/23 08:16:59;;;;;;;3.28;1.67;;;;;;;7.16;nan;99188.97;5058664;28;20509;-86
2022/11/23 08:19:24;;;;;;;4.43;1.38;;;;;;;7.19;nan;99193.06;5056848;28;20037;-87
2022/11/23 08:21:49;;;;;;;6.57;1.50;;;;;;;7.21;nan;99189.28;5047275;28;20044;-87
2022/11/23 08:24:14;;;;;;;5.35;1.50;;;;;;;7.25;nan;99200.31;5035569;28;20048;-87
2022/11/23 08:26:40;;;;;;;3.78;1.40;;;;;;;7.30;nan;99191.94;5050084;28;20029;-87
2022/11/23 08:29:05;;;;;;;5.80;2.13;;;;;;;7.31;nan;99189.13;5033224;28;20379;-86
2022/11/23 08:31:31;;;;;;;5.28;1.38;;;;;;;7.35;nan;99187.81;5034507;28;20159;-85
2022/11/23 08:33:57;;;;;;;2.95;1.20;;;;;;;7.40;nan;99193.41;5035014;28;20029;-86
2022/11/23 08:36:22;;;;;;;7.72;1.75;;;;;;;7.41;nan;99187.19;5048388;28;20148;-86
2022/11/23 08:38:50;;;;;;;4.40;1.60;;;;;;;7.45;nan;99185.84;5035269;28;20029;-85
2022/11/23 08:41:21;;;;;;;5.40;1.55;;;;;;;7.48;nan;99194.41;5031890;28;20048;-85
2022/11/23 08:43:47;;;;;;;;;;;;;;;7.48;nan;99197.03;5039571;28;20116;-86
2022/11/23 08:46:12;;;;;;;6.57;1.35;;;;;;;7.53;nan;99199.97;5032429;28;19977;-84
2022/11/23 08:48:37;;;;;;;3.88;1.63;;;;;;;7.57;nan;99194.22;5043894;28;20045;-85
2022/11/23 08:51:03;;;;;;;4.60;1.55;;;;;;;7.61;nan;99194.72;5046467;28;20255;-86
2022/11/23 08:53:28;;;;;;;3.88;1.45;;;;;;;7.63;nan;99195.41;5031757;28;20040;-87
2022/11/23 08:55:54;;;;;;;5.80;1.50;;;;;;;7.66;nan;99195.88;5044051;28;20037;-87
2022/11/23 08:58:19;;;;;;;4.72;1.48;;;;;;;7.66;nan;99198.50;5040786;28;20037;-86
2022/11/23 09:00:45;;;;;;;4.63;1.30;;;;;;;7.72;nan;99199.63;5035622;28;20668;-87
2022/11/23 09:03:11;;;;;;;4.38;1.70;;;;;;;7.73;nan;99198.66;5038195;28;20541;-86
2022/11/23 09:05:38;;;;;;;4.40;1.45;;;;;;;7.77;nan;99196.50;5031382;28;20029;-88
2022/11/23 09:08:03;;;;;;;3.83;1.33;;;;;;;7.80;nan;99198.84;5030050;28;20464;-87
2022/11/23 09:10:29;;;;;;;4.50;1.20;;;;;;;7.83;nan;99209.00;5046992;28;20108;-86
2022/11/23 09:12:54;;;;;;;6.07;1.55;;;;;;;7.90;nan;99203.91;5043198;28;20399;-88
2022/11/23 09:15:20;;;;;;;8.23;1.60;;;;;;;7.96;nan;99211.13;5033632;28;20422;-87
2022/11/23 09:17:45;;;;;;;4.03;1.50;;;;;;;8.01;nan;99203.56;5029990;28;20074;-88
2022/11/23 09:20:11;;;;;;;5.40;1.60;;;;;;;8.04;nan;99211.13;5029660;28;20036;-88
2022/11/23 09:22:36;;;;;;;3.97;1.42;;;;;;;8.10;nan;99213.06;5029943;28;20033;-86
2022/11/23 09:25:02;;;;;;;3.65;1.40;;;;;;;8.14;nan;99213.56;5041183;28;20029;-88
2022/11/23 09:27:27;;;;;;;4.47;1.40;;;;;;;8.20;nan;99213.72;5044139;28;20426;-88
2022/11/23 09:29:53;;;;;;;4.65;1.40;;;;;;;8.23;nan;99209.94;5032671;28;20123;-88
2022/11/23 09:32:18;;;;;;;3.85;1.27;;;;;;;8.27;nan;99212.06;5030245;28;20039;-88
2022/11/23 09:34:44;;;;;;;4.82;1.30;;;;;;;8.31;nan;99209.91;5035056;28;20037;-87
2022/11/23 09:37:10;;;;;;;6.25;1.40;;;;;;;8.33;nan;99213.19;5034215;28;20505;-88
2022/11/23 09:39:35;;;;;;;4.60;1.30;;;;;;;8.35;nan;99218.28;5032004;28;20498;-87
2022/11/23 09:42:12;;;;;;;5.55;1.75;;;;;;;8.40;nan;99224.72;5029240;28;20087;-88
2022/11/23 09:45:01;;;;;;;3.25;1.23;;;;;;;8.44;nan;99225.22;5032357;28;20044;-88
2022/11/23 09:47:47;;;;;;;5.43;1.70;;;;;;;8.44;nan;99219.94;5047069;28;20041;-87
2022/11/23 09:50:45;;;;;;;4.72;1.58;;;;;;;8.47;nan;99203.78;5049430;28;20435;-87
2022/11/23 09:53:15;;;;;;;6.90;1.77;;;;;;;8.51;nan;99213.00;5030421;28;20274;-87
2022/11/23 09:55:43;;;;;;;4.47;1.43;;;;;;;8.56;nan;99201.94;5029126;28;20040;-88
2022/11/23 09:58:14;;;;;;;4.65;1.35;;;;;;;8.58;nan;99199.94;5032374;28;20303;-87
2022/11/23 10:00:47;;;;;;;5.30;1.30;;;;;;;8.58;nan;99198.16;5032308;28;20041;-86
2022/11/23 10:03:14;;;;;;;3.60;1.23;;;;;;;8.66;nan;99202.56;5049285;28;20048;-86
2022/11/23 10:05:46;;;;;;;3.88;1.30;;;;;;;8.70;nan;99201.22;5049835;28;20057;-87
2022/11/23 10:08:22;;;;;;;3.85;1.20;;;;;;;8.75;nan;99212.06;5049635;28;20029;-87
2022/11/23 10:11:05;;;;;;;4.00;1.33;;;;;;;8.74;nan;99206.97;5027894;28;20064;-87
2022/11/23 10:13:44;;;;;;;3.88;1.40;;;;;;;8.76;nan;99205.78;5031520;28;20565;-86
2022/11/23 10:16:40;;;;;;;7.15;1.45;;;;;;;8.82;nan;99196.38;5027014;28;20034;-87
2022/11/23 10:19:17;;;;;;;5.45;1.60;;;;;;;8.86;nan;99198.47;5031878;28;20114;-88
2022/11/23 10:22:11;;;;;;;3.85;1.35;;;;;;;8.87;nan;99197.50;5030951;28;20033;-88
2022/11/23 10:24:42;;;;;;;4.50;1.40;;;;;;;8.90;nan;99193.69;5033669;28;20327;-88
2022/11/23 10:27:15;;;;;;;4.55;1.50;;;;;;;8.95;nan;99191.34;5030858;28;20029;-87
2022/11/23 10:29:44;;;;;;;6.78;1.30;;;;;;;8.97;nan;99192.00;5026606;28;20449;-88
2022/11/23 10:32:32;;;;;;;3.90;1.50;;;;;;;8.98;nan;99196.28;5026384;28;20067;-87
2022/11/23 10:35:09;;;;;;;3.20;1.30;;;;;;;9.03;nan;99188.66;5052485;28;20033;-87
2022/11/23 10:37:38;;;;;;;3.88;1.38;;;;;;;9.05;nan;99184.03;5068990;28;20364;-87
2022/11/23 10:40:11;;;;;;;5.18;1.58;;;;;;;9.09;nan;99190.59;5048999;28;20021;-88
2022/11/23 10:42:43;;;;;;;3.97;1.50;;;;;;;9.10;nan;99179.06;5050882;28;20048;-87
2022/11/23 10:45:23;;;;;;;5.55;1.90;;;;;;;9.14;nan;99184.81;5050686;28;20100;-89
2022/11/23 10:47:57;;;;;;;6.82;1.52;;;;;;;9.16;nan;99179.38;5050521;28;20056;-87
2022/11/23 10:50:39;;;;;;;7.25;1.63;;;;;;;9.23;nan;99183.75;5052803;28;20029;-88
2022/11/23 10:53:04;;;;;;;2.95;1.20;;;;;;;9.24;nan;99184.56;5054647;28;20021;-87
2022/11/23 10:55:32;;;;;;;5.23;1.20;;;;;;;9.29;nan;99183.03;5050191;28;20038;-88
2022/11/23 10:57:58;;;;;;;5.07;1.48;;;;;;;9.33;nan;99183.53;5033806;28;20518;-87
2022/11/23 11:00:27;;;;;;;3.35;1.23;;;;;;;9.35;nan;99176.25;5032337;28;20119;-89
2022/11/23 11:02:57;;;;;;;6.47;1.50;;;;;;;9.37;nan;99169.00;5032755;28;20045;-89
2022/11/23 11:05:27;;;;;;;4.53;1.60;;;;;;;9.41;nan;99174.72;5034638;28;20033;-88
2022/11/23 11:07:55;;;;;;;5.00;1.52;;;;;;;9.44;nan;99169.91;5033400;28;20090;-88
2022/11/23 11:10:59;;;;;;;3.72;1.48;;;;;;;9.46;nan;99169.72;5030706;28;20048;-88
2022/11/23 11:13:38;;;;;;;5.28;1.30;;;;;;;9.47;nan;99163.47;5032698;28;20124;-89
2022/11/23 11:16:16;;;;;;;6.68;1.50;;;;;;;9.46;nan;99161.81;5028567;28;20041;-88
2022/11/23 11:18:42;;;;;;;10.60;1.90;;;;;;;9.47;nan;99161.63;5025689;28;20039;-88
2022/11/23 11:21:27;;;;;;;3.92;1.45;;;;;;;9.46;nan;99156.53;5028742;28;20064;-88
2022/11/23 11:23:58;;;;;;;4.45;1.70;;;;;;;9.43;nan;99155.06;5030829;28;20705;-87
2022/11/23 11:26:26;;;;;;;7.63;1.77;;;;;;;9.46;nan;99146.81;5030343;28;20040;-88
2022/11/23 11:28:55;;;;;;;6.05;1.60;;;;;;;9.47;nan;99134.44;5030721;28;20037;-88
2022/11/23 11:31:36;;;;;;;3.97;1.30;;;;;;;9.48;nan;99142.16;5021633;28;20040;-88
2022/11/23 11:34:34;;;;;;;4.25;1.60;;;;;;;9.47;nan;99137.91;5029989;28;20277;-88
2022/11/23 11:37:13;;;;;;;4.20;1.48;;;;;;;9.48;nan;99131.59;5030577;28;20090;-88
2022/11/23 11:39:48;;;;;;;5.70;1.60;;;;;;;9.51;nan;99122.50;5030167;28;20124;-88
2022/11/23 11:42:22;;;;;;;7.60;1.58;;;;;;;9.56;nan;99128.09;5030015;28;20383;-88
2022/11/23 11:44:53;;;;;;;4.15;1.30;;;;;;;9.56;nan;99125.47;5051241;28;20629;-89
2022/11/23 11:47:58;;;;;;;5.50;1.67;;;;;;;9.53;nan;99113.44;5033232;28;20498;-88
2022/11/23 11:50:28;;;;;;;5.03;1.55;;;;;;;9.50;nan;99112.97;5002761;28;20033;-88
2022/11/23 11:53:04;;;;;;;4.63;1.20;;;;;;;9.52;nan;99106.50;5051742;28;20028;-88
2022/11/23 11:55:53;;;;;;;4.63;1.30;;;;;;;9.55;nan;99110.59;5042504;28;20033;-88
2022/11/23 11:58:23;;;;;;;4.63;1.50;;;;;;;9.60;nan;99102.97;5032736;28;20037;-88
2022/11/23 12:00:50;;;;;;;6.47;1.70;;;;;;;9.65;nan;99103.22;5051446;28;20118;-88
2022/11/23 12:03:36;;;;;;;3.55;1.50;;;;;;;9.67;nan;99097.78;5031300;28;20244;-87